createdAt,value
2022-11-22T00:00:43.189Z,6.90
2022-11-22T00:03:10.439Z,6.90
2022-11-22T00:05:38.123Z,6.90
2022-11-22T00:08:05.652Z,6.90
2022-11-22T00:10:32.924Z,6.90
2022-11-22T00:13:00.241Z,6.90
2022-11-22T00:15:27.233Z,6.90
2022-11-22T00:17:54.153Z,6.90
2022-11-22T00:20:22.301Z,6.90
2022-11-22T00:22:49.271Z,6.90
2022-11-22T00:25:16.405Z,6.90
2022-11-22T00:27:43.799Z,6.80
2022-11-22T00:30:11.227Z,6.80
2022-11-22T00:32:38.170Z,6.90
2022-11-22T00:35:05.832Z,6.80
2022-11-22T00:37:33.231Z,6.80
2022-11-22T00:40:00.232Z,6.80
2022-11-22T00:42:27.183Z,6.70
2022-11-22T00:44:54.092Z,6.70
2022-11-22T00:47:21.051Z,6.60
2022-11-22T00:49:48.065Z,6.60
2022-11-22T00:52:15.139Z,6.60
2022-11-22T00:54:42.296Z,6.60
2022-11-22T00:57:09.224Z,6.60
2022-11-22T00:59:36.127Z,6.60
2022-11-22T01:02:03.060Z,6.50
2022-11-22T01:04:30.011Z,6.50
2022-11-22T01:06:56.955Z,6.50
2022-11-22T01:09:24.897Z,6.50
2022-11-22T01:11:52.373Z,6.50
2022-11-22T01:14:19.664Z,6.40
2022-11-22T01:16:47.733Z,6.40
2022-11-22T01:19:15.385Z,6.30
2022-11-22T01:21:42.506Z,6.30
2022-11-22T01:24:10.104Z,6.30
2022-11-22T01:26:37.256Z,6.20
2022-11-22T01:29:04.778Z,6.20
2022-11-22T01:31:31.837Z,6.20
2022-11-22T01:33:59.508Z,6.10
2022-11-22T01:36:27.583Z,6.20
2022-11-22T01:38:55.274Z,6.20
2022-11-22T01:41:22.867Z,6.10
2022-11-22T01:43:49.897Z,6.10
2022-11-22T01:46:30.536Z,6.10
2022-11-22T01:49:29.351Z,6.10
2022-11-22T01:52:06.340Z,6.10
2022-11-22T01:54:38.822Z,6.10
2022-11-22T01:57:13.925Z,6.00
2022-11-22T01:59:49.215Z,6.00
2022-11-22T02:02:16.292Z,6.00
2022-11-22T02:04:45.596Z,6.00
2022-11-22T02:07:25.140Z,5.90
2022-11-22T02:09:53.355Z,5.90
2022-11-22T02:12:27.953Z,5.90
2022-11-22T02:14:56.090Z,5.80
2022-11-22T02:17:26.757Z,5.80
2022-11-22T02:19:54.648Z,5.80
2022-11-22T02:22:52.343Z,5.80
2022-11-22T02:25:27.211Z,5.80
2022-11-22T02:27:54.174Z,5.70
2022-11-22T02:30:21.847Z,5.70
2022-11-22T02:32:48.809Z,5.70
2022-11-22T02:35:22.844Z,5.70
2022-11-22T02:37:56.697Z,5.70
2022-11-22T02:40:24.593Z,5.60
2022-11-22T02:43:36.020Z,5.60
2022-11-22T02:46:09.515Z,5.60
2022-11-22T02:48:42.555Z,5.60
2022-11-22T02:51:09.837Z,5.60
2022-11-22T02:53:36.963Z,5.60
2022-11-22T02:56:04.090Z,5.60
2022-11-22T02:58:31.022Z,5.60
2022-11-22T03:00:58.006Z,5.60
2022-11-22T03:03:24.991Z,5.60
2022-11-22T03:05:51.926Z,5.60
2022-11-22T03:08:18.863Z,5.60
2022-11-22T03:10:45.802Z,5.60
2022-11-22T03:13:12.718Z,5.50
2022-11-22T03:15:39.681Z,5.50
2022-11-22T03:18:06.638Z,5.50
2022-11-22T03:20:34.127Z,5.50
2022-11-22T03:23:01.543Z,5.50
2022-11-22T03:25:28.974Z,5.50
2022-11-22T03:27:56.222Z,5.50
2022-11-22T03:30:23.136Z,5.40
2022-11-22T03:32:50.048Z,5.50
2022-11-22T03:35:17.043Z,5.50
2022-11-22T03:37:43.940Z,5.50
2022-11-22T03:40:11.236Z,5.50
2022-11-22T03:42:38.181Z,5.50
2022-11-22T03:45:06.368Z,5.50
2022-11-22T03:47:33.281Z,5.40
2022-11-22T03:50:00.238Z,5.40
2022-11-22T03:52:27.232Z,5.40
2022-11-22T03:54:54.132Z,5.40
2022-11-22T03:57:21.049Z,5.30
2022-11-22T03:59:48.027Z,5.30
2022-11-22T04:02:15.085Z,5.30
2022-11-22T04:04:42.063Z,5.40
2022-11-22T04:07:09.002Z,5.40
2022-11-22T04:09:35.959Z,5.50
2022-11-22T04:12:03.105Z,5.50
2022-11-22T04:14:48.443Z,5.50
2022-11-22T04:17:35.544Z,5.60
2022-11-22T04:20:21.038Z,5.50
2022-11-22T04:23:13.573Z,5.60
2022-11-22T04:25:43.528Z,5.60
2022-11-22T04:28:12.199Z,5.60
2022-11-22T04:30:57.898Z,5.60
2022-11-22T04:33:25.631Z,5.60
2022-11-22T04:35:53.061Z,5.60
2022-11-22T04:38:20.877Z,5.60
2022-11-22T04:40:48.119Z,5.50
2022-11-22T04:43:42.988Z,5.60
2022-11-22T04:46:10.577Z,5.60
2022-11-22T04:48:37.775Z,5.50
2022-11-22T04:51:25.235Z,5.50
2022-11-22T04:53:52.631Z,5.50
2022-11-22T04:56:19.845Z,5.50
2022-11-22T04:58:46.796Z,5.50
2022-11-22T05:01:13.782Z,5.50
2022-11-22T05:03:40.766Z,5.50
2022-11-22T05:06:07.706Z,5.50
2022-11-22T05:08:34.661Z,5.50
2022-11-22T05:11:01.631Z,5.50
2022-11-22T05:13:38.872Z,5.40
2022-11-22T05:16:09.071Z,5.40
2022-11-22T05:18:36.482Z,5.40
2022-11-22T05:21:08.916Z,5.40
2022-11-22T05:23:54.599Z,5.50
2022-11-22T05:26:33.911Z,5.50
2022-11-22T05:29:10.002Z,5.50
2022-11-22T05:31:39.785Z,5.60
2022-11-22T05:34:07.294Z,5.60
2022-11-22T05:36:35.373Z,5.60
2022-11-22T05:39:03.005Z,5.60
2022-11-22T05:41:30.071Z,5.70
2022-11-22T05:43:57.478Z,5.70
2022-11-22T05:46:30.181Z,5.70
2022-11-22T05:48:58.506Z,5.70
2022-11-22T05:51:34.608Z,5.70
2022-11-22T05:54:02.748Z,5.80
2022-11-22T05:56:29.815Z,5.80
2022-11-22T05:58:56.783Z,5.80
2022-11-22T06:01:24.731Z,5.80
2022-11-22T06:03:52.377Z,5.90
2022-11-22T06:06:19.889Z,5.90
2022-11-22T06:08:48.632Z,5.90
2022-11-22T06:11:25.763Z,5.90
2022-11-22T06:13:59.572Z,5.90
2022-11-22T06:16:27.474Z,6.00
2022-11-22T06:18:54.739Z,6.00
2022-11-22T06:21:24.706Z,6.00
2022-11-22T06:23:53.437Z,6.00
2022-11-22T06:26:21.570Z,6.00
2022-11-22T06:28:49.801Z,6.00
2022-11-22T06:31:20.968Z,6.00
2022-11-22T06:33:48.547Z,6.10
2022-11-22T06:36:19.979Z,6.10
2022-11-22T06:38:47.637Z,6.10
2022-11-22T06:41:19.269Z,6.10
2022-11-22T06:43:49.358Z,6.10
2022-11-22T06:46:22.962Z,6.20
2022-11-22T06:48:50.406Z,6.20
2022-11-22T06:51:27.609Z,6.20
2022-11-22T06:53:56.001Z,6.20
2022-11-22T06:56:30.890Z,6.20
2022-11-22T06:59:02.012Z,6.20
2022-11-22T07:01:29.943Z,6.20
2022-11-22T07:03:59.148Z,6.20
2022-11-22T07:06:33.527Z,6.20
2022-11-22T07:09:02.480Z,6.30
2022-11-22T07:11:32.159Z,6.30
2022-11-22T07:14:06.976Z,6.20
2022-11-22T07:16:37.414Z,6.20
2022-11-22T07:19:05.701Z,6.30
2022-11-22T07:21:32.771Z,6.30
2022-11-22T07:23:59.784Z,6.30
2022-11-22T07:26:27.851Z,6.30
2022-11-22T07:28:54.944Z,6.30
2022-11-22T07:31:21.935Z,6.30
2022-11-22T07:33:49.232Z,6.30
2022-11-22T07:36:20.155Z,6.40
2022-11-22T07:38:50.347Z,6.30
2022-11-22T07:41:19.407Z,6.30
2022-11-22T07:43:47.225Z,6.30
2022-11-22T07:46:31.262Z,6.30
2022-11-22T07:49:00.057Z,6.30
2022-11-22T07:51:27.536Z,6.30
2022-11-22T07:53:56.452Z,6.30
2022-11-22T07:56:24.250Z,6.40
2022-11-22T07:58:51.226Z,6.40
2022-11-22T08:01:19.941Z,6.40
2022-11-22T08:03:46.966Z,6.40
2022-11-22T08:06:15.025Z,6.50
2022-11-22T08:08:42.448Z,6.50
2022-11-22T08:11:10.163Z,6.60
2022-11-22T08:13:40.473Z,6.60
2022-11-22T08:16:11.807Z,6.60
2022-11-22T08:18:39.600Z,6.70
2022-11-22T08:21:12.533Z,6.70
2022-11-22T08:23:40.540Z,6.80
2022-11-22T08:26:12.669Z,6.80
2022-11-22T08:28:40.978Z,6.80
2022-11-22T08:31:12.827Z,6.80
2022-11-22T08:33:40.839Z,6.90
2022-11-22T08:36:08.448Z,6.90
2022-11-22T08:38:36.154Z,6.90
2022-11-22T08:41:04.191Z,7.00
2022-11-22T08:43:31.982Z,7.00
2022-11-22T08:46:00.106Z,7.00
2022-11-22T08:48:28.685Z,7.00
2022-11-22T08:50:58.786Z,6.90
2022-11-22T08:53:26.674Z,6.90
2022-11-22T08:55:54.818Z,6.80
2022-11-22T08:58:22.607Z,6.80
2022-11-22T09:00:49.530Z,6.80
2022-11-22T09:03:16.454Z,6.80
2022-11-22T09:08:34.366Z,6.90
2022-11-22T09:11:07.030Z,7.00
2022-11-22T09:13:34.064Z,7.00
2022-11-22T09:16:07.495Z,7.10
2022-11-22T09:18:35.437Z,7.10
2022-11-22T09:21:11.206Z,7.20
2022-11-22T09:23:38.377Z,7.40
2022-11-22T09:26:08.983Z,7.80
2022-11-22T09:28:36.485Z,8.10
2022-11-22T09:31:13.706Z,8.00
2022-11-22T09:33:42.242Z,7.90
2022-11-22T09:36:18.871Z,7.80
2022-11-22T09:38:46.243Z,7.70
2022-11-22T09:41:55.688Z,7.70
2022-11-22T09:44:50.366Z,7.60
2022-11-22T09:47:35.733Z,7.60
2022-11-22T09:50:26.519Z,7.60
2022-11-22T09:53:17.109Z,7.70
2022-11-22T09:56:09.847Z,7.70
2022-11-22T09:58:53.352Z,7.80
2022-11-22T10:01:41.068Z,7.90
2022-11-22T10:04:21.518Z,8.10
2022-11-22T10:06:55.937Z,8.10
2022-11-22T10:09:46.887Z,8.10
2022-11-22T10:12:36.154Z,8.00
2022-11-22T10:15:11.524Z,8.00
2022-11-22T10:18:09.485Z,8.10
2022-11-22T10:20:47.247Z,8.00
2022-11-22T10:23:20.626Z,8.10
2022-11-22T10:26:21.865Z,8.00
2022-11-22T10:29:05.394Z,7.90
2022-11-22T10:31:44.282Z,8.00
2022-11-22T10:34:38.221Z,8.10
2022-11-22T10:37:42.324Z,8.20
2022-11-22T10:40:21.460Z,8.20
2022-11-22T10:43:26.526Z,8.30
2022-11-22T10:46:08.425Z,8.30
2022-11-22T10:48:48.612Z,8.40
2022-11-22T10:51:18.602Z,8.20
2022-11-22T10:54:04.141Z,8.20
2022-11-22T10:56:55.064Z,8.30
2022-11-22T10:59:36.750Z,8.20
2022-11-22T11:02:36.094Z,8.20
2022-11-22T11:05:09.052Z,8.30
2022-11-22T11:07:46.250Z,8.30
2022-11-22T11:10:32.591Z,8.30
2022-11-22T11:13:26.374Z,8.40
2022-11-22T11:16:00.250Z,8.40
2022-11-22T11:18:41.802Z,8.50
2022-11-22T11:21:14.676Z,8.70
2022-11-22T11:23:42.824Z,9.00
2022-11-22T11:26:24.152Z,9.10
2022-11-22T11:28:51.386Z,9.10
2022-11-22T11:31:19.170Z,9.00
2022-11-22T11:33:46.981Z,8.90
2022-11-22T11:36:22.194Z,9.00
2022-11-22T11:38:57.440Z,9.10
2022-11-22T11:41:40.245Z,9.10
2022-11-22T11:44:32.337Z,9.00
2022-11-22T11:47:02.520Z,8.90
2022-11-22T11:49:33.105Z,9.00
2022-11-22T11:52:04.202Z,9.10
2022-11-22T11:54:40.759Z,9.10
2022-11-22T11:57:23.945Z,9.10
2022-11-22T11:59:52.613Z,9.00
2022-11-22T12:02:39.997Z,9.00
2022-11-22T12:05:14.198Z,8.90
2022-11-22T12:07:44.877Z,8.90
2022-11-22T12:10:40.639Z,8.90
2022-11-22T12:14:12.445Z,9.00
2022-11-22T12:16:40.315Z,9.10
2022-11-22T12:20:02.308Z,9.20
2022-11-22T12:23:01.265Z,9.30
2022-11-22T12:25:39.247Z,9.20
2022-11-22T12:28:20.769Z,9.30
2022-11-22T12:31:16.344Z,9.30
2022-11-22T12:33:47.919Z,9.30
2022-11-22T12:36:54.249Z,9.30
2022-11-22T12:39:27.219Z,9.30
2022-11-22T12:42:01.500Z,9.30
2022-11-22T12:44:35.016Z,9.50
2022-11-22T12:47:13.298Z,9.60
2022-11-22T12:50:07.145Z,9.60
2022-11-22T12:52:47.799Z,9.70
2022-11-22T12:55:31.586Z,9.80
2022-11-22T12:58:32.760Z,10.00
2022-11-22T13:01:24.579Z,10.20
2022-11-22T13:04:01.124Z,10.30
2022-11-22T13:06:50.167Z,10.20
2022-11-22T13:09:36.493Z,10.30
2022-11-22T13:12:09.903Z,10.30
2022-11-22T13:14:47.656Z,10.50
2022-11-22T13:17:17.381Z,10.60
2022-11-22T13:19:50.897Z,10.60
2022-11-22T13:23:01.582Z,10.40
2022-11-22T13:25:48.698Z,10.30
2022-11-22T13:28:30.219Z,10.20
2022-11-22T13:31:04.406Z,10.30
2022-11-22T13:33:32.162Z,10.30
2022-11-22T13:36:29.919Z,10.30
2022-11-22T13:39:09.503Z,10.40
2022-11-22T13:41:59.866Z,10.30
2022-11-22T13:44:33.026Z,10.30
2022-11-22T13:47:04.611Z,10.20
2022-11-22T13:49:48.826Z,10.20
2022-11-22T13:52:16.197Z,10.20
2022-11-22T13:54:56.771Z,10.40
2022-11-22T13:57:40.671Z,10.40
2022-11-22T14:00:16.045Z,10.40
2022-11-22T14:03:21.475Z,10.40
2022-11-22T14:05:51.393Z,10.30
2022-11-22T14:08:36.428Z,10.20
2022-11-22T14:11:37.663Z,10.20
2022-11-22T14:14:46.488Z,10.10
2022-11-22T14:17:41.574Z,10.00
2022-11-22T14:20:27.597Z,10.00
2022-11-22T14:23:30.716Z,10.10
2022-11-22T14:26:10.558Z,10.20
2022-11-22T14:29:05.311Z,10.00
2022-11-22T14:31:35.107Z,9.80
2022-11-22T14:34:27.393Z,9.70
2022-11-22T14:37:13.212Z,9.60
2022-11-22T14:39:50.159Z,9.60
2022-11-22T14:42:35.724Z,9.50
2022-11-22T14:45:43.797Z,9.50
2022-11-22T14:48:30.468Z,9.50
2022-11-22T14:51:20.170Z,9.40
2022-11-22T14:54:00.301Z,9.40
2022-11-22T14:56:34.442Z,9.30
2022-11-22T14:59:01.275Z,9.30
2022-11-22T15:01:48.085Z,9.20
2022-11-22T15:09:10.684Z,9.20
2022-11-22T15:09:15.085Z,9.20
2022-11-22T15:11:21.489Z,9.20
2022-11-22T15:14:13.546Z,9.10
2022-11-22T15:57:30.196Z,9.00
2022-11-22T15:59:57.667Z,9.10
2022-11-22T16:02:32.524Z,9.10
2022-11-22T16:06:07.808Z,9.10
2022-11-22T16:07:56.934Z,9.20
2022-11-22T16:10:42.527Z,9.20
2022-11-22T16:13:21.613Z,9.20
2022-11-22T16:16:11.695Z,9.20
2022-11-22T16:18:42.888Z,9.30
2022-11-22T16:21:15.401Z,9.30
2022-11-22T16:23:46.920Z,9.30
2022-11-22T16:27:06.087Z,9.30
2022-11-22T16:29:36.971Z,9.30
2022-11-22T16:32:15.071Z,9.30
2022-11-22T16:34:43.447Z,9.30
2022-11-22T16:37:37.693Z,9.30
2022-11-22T16:40:06.634Z,9.40
2022-11-22T16:42:35.455Z,9.40
2022-11-22T16:45:04.252Z,9.40
2022-11-22T16:47:31.597Z,9.40
2022-11-22T16:49:58.547Z,9.40
2022-11-22T16:52:25.582Z,9.40
2022-11-22T16:54:52.487Z,9.40
2022-11-22T16:57:19.398Z,9.30
2022-11-22T16:59:46.382Z,9.30
2022-11-22T17:02:15.806Z,9.30
2022-11-22T17:04:45.832Z,9.30
2022-11-22T17:07:14.739Z,9.40
2022-11-22T17:09:42.167Z,9.40
2022-11-22T17:12:32.191Z,9.40
2022-11-22T17:15:00.799Z,9.50
2022-11-22T17:17:27.743Z,9.60
2022-11-22T17:19:54.689Z,9.60
2022-11-22T17:22:21.732Z,9.60
2022-11-22T17:24:48.902Z,9.60
2022-11-22T17:27:15.922Z,9.60
2022-11-22T17:29:50.421Z,9.50
2022-11-22T17:32:18.265Z,9.50
2022-11-22T17:34:45.290Z,9.50
2022-11-22T17:37:13.058Z,9.40
2022-11-22T17:39:42.804Z,9.40
2022-11-22T17:42:09.751Z,9.30
2022-11-22T17:44:36.760Z,9.20
2022-11-22T17:47:04.038Z,9.20
2022-11-22T17:49:31.374Z,9.20
2022-11-22T17:51:58.465Z,9.20
2022-11-22T17:54:25.376Z,9.20
2022-11-22T17:56:52.350Z,9.20
2022-11-22T17:59:19.315Z,9.20
2022-11-22T18:01:46.299Z,9.30
2022-11-22T18:04:14.707Z,9.20
2022-11-22T18:06:41.676Z,9.30
2022-11-22T18:09:08.833Z,9.30
2022-11-22T18:11:35.765Z,9.30
2022-11-22T18:14:02.654Z,9.30
2022-11-22T18:16:30.121Z,9.20
2022-11-22T18:18:58.541Z,9.20
2022-11-22T18:21:29.047Z,9.20
2022-11-22T18:23:58.349Z,9.30
2022-11-22T18:26:41.620Z,9.30
2022-11-22T18:31:57.348Z,9.30
2022-11-22T18:34:25.065Z,9.40
2022-11-22T18:36:55.686Z,9.30
2022-11-22T18:39:23.319Z,9.40
2022-11-22T18:41:50.316Z,9.40
2022-11-22T18:44:17.342Z,9.40
2022-11-22T18:46:44.362Z,9.40
2022-11-22T18:49:11.509Z,9.40
2022-11-22T18:51:38.587Z,9.50
2022-11-22T18:54:05.748Z,9.50
2022-11-22T18:56:37.802Z,9.50
2022-11-22T18:59:06.324Z,9.50
2022-11-22T19:01:37.290Z,9.50
2022-11-22T19:04:04.907Z,9.50
2022-11-22T19:06:32.132Z,9.50
2022-11-22T19:08:59.287Z,9.50
2022-11-22T19:11:29.293Z,9.60
2022-11-22T19:13:57.086Z,9.60
2022-11-22T19:16:25.828Z,9.60
2022-11-22T19:18:52.879Z,9.70
2022-11-22T19:21:22.900Z,9.70
2022-11-22T19:23:50.484Z,9.70
2022-11-22T19:26:23.872Z,9.70
2022-11-22T19:28:55.638Z,9.70
2022-11-22T19:31:31.450Z,9.70
2022-11-22T19:33:59.768Z,9.70
2022-11-22T19:36:33.253Z,9.70
2022-11-22T19:39:05.680Z,9.70
2022-11-22T19:41:33.292Z,9.70
2022-11-22T19:44:00.596Z,9.70
2022-11-22T19:46:28.193Z,9.70
2022-11-22T19:48:58.059Z,9.70
2022-11-22T19:51:27.532Z,9.70
2022-11-22T19:53:59.753Z,9.70
2022-11-22T19:56:30.629Z,9.70
2022-11-22T19:58:59.960Z,9.70
2022-11-22T20:01:30.469Z,9.70
2022-11-22T20:04:00.956Z,9.60
2022-11-22T20:06:29.116Z,9.60
2022-11-22T20:09:10.388Z,9.70
2022-11-22T20:11:39.714Z,9.60
2022-11-22T20:14:07.618Z,9.60
2022-11-22T20:16:41.717Z,9.60
2022-11-22T20:19:10.629Z,9.60
2022-11-22T20:21:39.099Z,9.60
2022-11-22T20:24:07.044Z,9.60
2022-11-22T20:26:34.801Z,9.60
2022-11-22T20:29:07.607Z,9.60
2022-11-22T20:31:37.892Z,9.60
2022-11-22T20:34:05.567Z,9.60
2022-11-22T20:36:34.743Z,9.60
2022-11-22T20:39:05.522Z,9.60
2022-11-22T20:41:36.446Z,9.60
2022-11-22T20:44:03.792Z,9.50
2022-11-22T20:46:30.772Z,9.40
2022-11-22T20:48:58.254Z,9.40
2022-11-22T20:51:28.705Z,9.40
2022-11-22T20:53:57.086Z,9.30
2022-11-22T20:56:24.866Z,9.30
2022-11-22T20:58:52.506Z,9.30
2022-11-22T21:01:26.189Z,9.30
2022-11-22T21:03:54.469Z,9.40
2022-11-22T21:06:24.266Z,9.40
2022-11-22T21:08:51.697Z,9.40
2022-11-22T21:11:22.712Z,9.40
2022-11-22T21:13:51.242Z,9.40
2022-11-22T21:16:28.105Z,9.40
2022-11-22T21:18:58.576Z,9.40
2022-11-22T21:21:26.403Z,9.50
2022-11-22T21:23:56.285Z,9.50
2022-11-22T21:26:24.346Z,9.50
2022-11-22T21:28:52.665Z,9.40
2022-11-22T21:31:21.051Z,9.40
2022-11-22T21:33:48.832Z,9.40
2022-11-22T21:36:16.100Z,9.40
2022-11-22T21:38:43.172Z,9.40
2022-11-22T21:44:05.637Z,9.40
2022-11-22T21:46:32.562Z,9.30
2022-11-22T21:48:59.595Z,9.40
2022-11-22T21:51:26.773Z,9.30
2022-11-22T21:54:01.741Z,9.30
2022-11-22T21:56:29.252Z,9.30
2022-11-22T21:58:56.432Z,9.30
2022-11-22T22:01:23.980Z,9.20
2022-11-22T22:03:51.183Z,9.20
2022-11-22T22:06:18.668Z,9.20
2022-11-22T22:08:45.572Z,9.30
2022-11-22T22:11:12.820Z,9.20
2022-11-22T22:13:39.803Z,9.20
2022-11-22T22:16:07.331Z,9.20
2022-11-22T22:18:37.501Z,9.20
2022-11-22T22:21:10.351Z,9.30
2022-11-22T22:23:39.342Z,9.30
2022-11-22T22:26:15.819Z,9.30
2022-11-22T22:28:45.096Z,9.30
2022-11-22T22:31:22.311Z,9.30
2022-11-22T22:33:56.577Z,9.30
2022-11-22T22:36:25.940Z,9.30
2022-11-22T22:38:53.934Z,9.30
2022-11-22T22:41:20.885Z,9.30
2022-11-22T22:43:49.187Z,9.30
2022-11-22T22:46:22.743Z,9.30
2022-11-22T22:48:50.819Z,9.30
2022-11-22T22:51:21.078Z,9.30
2022-11-22T22:53:48.880Z,9.30
2022-11-22T22:56:18.987Z,9.30
2022-11-22T22:58:46.307Z,9.30
2022-11-22T23:01:19.918Z,9.30
2022-11-22T23:03:57.334Z,9.30
2022-11-22T23:06:30.032Z,9.30
2022-11-22T23:08:57.922Z,9.40
2022-11-22T23:11:48.996Z,9.40
2022-11-22T23:14:23.539Z,9.40
2022-11-22T23:16:55.989Z,9.40
2022-11-22T23:19:24.710Z,9.40
2022-11-22T23:21:51.804Z,9.40
2022-11-22T23:24:18.906Z,9.40
2022-11-22T23:26:45.933Z,9.40
2022-11-22T23:29:13.109Z,9.40
2022-11-22T23:31:40.116Z,9.40
2022-11-22T23:34:07.139Z,9.40
2022-11-22T23:36:40.226Z,9.40
2022-11-22T23:39:07.960Z,9.40
2022-11-22T23:41:35.028Z,9.30
2022-11-22T23:44:02.029Z,9.40
2022-11-22T23:46:29.091Z,9.40
2022-11-22T23:48:59.604Z,9.40
2022-11-22T23:51:28.904Z,9.30
2022-11-22T23:54:02.096Z,9.30
2022-11-22T23:56:31.017Z,9.30
2022-11-22T23:59:01.867Z,9.30
